sensor_id;sensor_type;location;lat;lon;timestamp;pressure;altitude;pressure_sealevel;temperature;humidity
80405;BME280;69733;48.744;9.176;2023-05-29T00:02:03;96738.66;;;14.40;48.65
80405;BME280;69733;48.744;9.176;2023-05-29T00:04:28;96741.56;;;14.34;48.86
80405;BME280;69733;48.744;9.176;2023-05-29T00:06:53;96739.53;;;14.24;48.85
80405;BME280;69733;48.744;9.176;2023-05-29T00:09:18;96730.66;;;14.19;49.32
80405;BME280;69733;48.744;9.176;2023-05-29T00:11:44;96728.44;;;14.11;49.18
80405;BME280;69733;48.744;9.176;2023-05-29T00:14:12;96734.78;;;14.05;49.36
80405;BME280;69733;48.744;9.176;2023-05-29T00:16:39;96732.13;;;14.05;49.72
80405;BME280;69733;48.744;9.176;2023-05-29T00:19:04;96734.34;;;14.13;49.77
80405;BME280;69733;48.744;9.176;2023-05-29T00:21:30;96738.75;;;14.24;49.72
80405;BME280;69733;48.744;9.176;2023-05-29T00:23:55;96725.97;;;14.31;49.50
80405;BME280;69733;48.744;9.176;2023-05-29T00:26:20;96719.88;;;14.35;49.82
80405;BME280;69733;48.744;9.176;2023-05-29T00:28:46;96716.94;;;14.37;49.80
80405;BME280;69733;48.744;9.176;2023-05-29T00:31:11;96722.31;;;14.37;49.77
80405;BME280;69733;48.744;9.176;2023-05-29T00:33:36;96719.34;;;14.38;50.02
80405;BME280;69733;48.744;9.176;2023-05-29T00:36:02;96705.97;;;14.38;50.08
80405;BME280;69733;48.744;9.176;2023-05-29T00:38:27;96705.44;;;14.36;50.14
80405;BME280;69733;48.744;9.176;2023-05-29T00:40:52;96714.50;;;14.35;50.28
80405;BME280;69733;48.744;9.176;2023-05-29T00:43:18;96708.53;;;14.28;50.23
80405;BME280;69733;48.744;9.176;2023-05-29T00:45:43;96711.47;;;14.27;50.48
80405;BME280;69733;48.744;9.176;2023-05-29T00:48:08;96712.00;;;14.24;50.49
80405;BME280;69733;48.744;9.176;2023-05-29T00:50:34;96707.94;;;14.21;50.64
80405;BME280;69733;48.744;9.176;2023-05-29T00:53:00;96704.41;;;14.16;50.66
80405;BME280;69733;48.744;9.176;2023-05-29T00:55:27;96709.47;;;14.12;50.64
80405;BME280;69733;48.744;9.176;2023-05-29T00:57:53;96703.50;;;14.05;50.86
80405;BME280;69733;48.744;9.176;2023-05-29T01:00:19;96707.97;;;14.00;51.07
80405;BME280;69733;48.744;9.176;2023-05-29T01:02:45;96710.03;;;13.92;51.15
80405;BME280;69733;48.744;9.176;2023-05-29T01:05:12;96705.41;;;13.83;51.37
80405;BME280;69733;48.744;9.176;2023-05-29T01:07:38;96700.47;;;13.75;51.51
80405;BME280;69733;48.744;9.176;2023-05-29T01:10:05;96707.34;;;13.66;51.84
80405;BME280;69733;48.744;9.176;2023-05-29T01:12:38;96700.34;;;13.60;51.76
80405;BME280;69733;48.744;9.176;2023-05-29T01:15:17;96710.13;;;13.54;51.92
80405;BME280;69733;48.744;9.176;2023-05-29T01:18:23;96704.69;;;13.44;52.10
80405;BME280;69733;48.744;9.176;2023-05-29T01:20:59;96709.09;;;13.33;52.40
80405;BME280;69733;48.744;9.176;2023-05-29T01:23:59;96708.72;;;13.25;52.46
80405;BME280;69733;48.744;9.176;2023-05-29T01:29:13;96710.56;;;13.08;52.78
80405;BME280;69733;48.744;9.176;2023-05-29T01:31:39;96701.91;;;13.01;53.03
80405;BME280;69733;48.744;9.176;2023-05-29T01:34:05;96701.06;;;12.95;53.23
80405;BME280;69733;48.744;9.176;2023-05-29T01:36:31;96703.09;;;12.88;53.22
80405;BME280;69733;48.744;9.176;2023-05-29T01:38:58;96700.31;;;12.83;53.49
80405;BME280;69733;48.744;9.176;2023-05-29T01:41:24;96702.63;;;12.74;53.58
80405;BME280;69733;48.744;9.176;2023-05-29T01:43:51;96708.69;;;12.70;53.67
80405;BME280;69733;48.744;9.176;2023-05-29T01:46:18;96707.81;;;12.64;53.85
80405;BME280;69733;48.744;9.176;2023-05-29T01:48:45;96706.91;;;12.59;54.20
80405;BME280;69733;48.744;9.176;2023-05-29T01:51:11;96708.44;;;12.55;54.08
80405;BME280;69733;48.744;9.176;2023-05-29T01:53:38;96717.19;;;12.50;54.28
80405;BME280;69733;48.744;9.176;2023-05-29T01:56:04;96720.81;;;12.44;54.54
80405;BME280;69733;48.744;9.176;2023-05-29T01:58:30;96717.81;;;12.40;54.47
80405;BME280;69733;48.744;9.176;2023-05-29T02:00:57;96719.34;;;12.36;54.76
80405;BME280;69733;48.744;9.176;2023-05-29T02:03:25;96717.16;;;12.33;54.83
80405;BME280;69733;48.744;9.176;2023-05-29T02:05:54;96724.28;;;12.28;54.90
80405;BME280;69733;48.744;9.176;2023-05-29T02:08:20;96720.25;;;12.25;54.89
80405;BME280;69733;48.744;9.176;2023-05-29T02:10:45;96719.09;;;12.21;55.17
80405;BME280;69733;48.744;9.176;2023-05-29T02:13:11;96718.78;;;12.18;55.28
80405;BME280;69733;48.744;9.176;2023-05-29T02:15:36;96713.09;;;12.14;55.66
80405;BME280;69733;48.744;9.176;2023-05-29T02:18:01;96711.16;;;12.10;55.74
80405;BME280;69733;48.744;9.176;2023-05-29T02:20:27;96715.13;;;12.07;56.02
80405;BME280;69733;48.744;9.176;2023-05-29T02:22:55;96710.81;;;12.06;56.05
80405;BME280;69733;48.744;9.176;2023-05-29T02:25:20;96710.25;;;12.04;56.21
80405;BME280;69733;48.744;9.176;2023-05-29T02:27:45;96712.13;;;12.04;56.01
80405;BME280;69733;48.744;9.176;2023-05-29T02:30:11;96708.03;;;12.01;56.34
80405;BME280;69733;48.744;9.176;2023-05-29T02:32:40;96707.72;;;11.97;56.40
80405;BME280;69733;48.744;9.176;2023-05-29T02:35:06;96704.50;;;11.95;56.55
80405;BME280;69733;48.744;9.176;2023-05-29T02:37:34;96715.88;;;11.91;56.61
80405;BME280;69733;48.744;9.176;2023-05-29T02:39:59;96712.06;;;11.87;57.04
80405;BME280;69733;48.744;9.176;2023-05-29T02:42:24;96709.31;;;11.82;57.08
80405;BME280;69733;48.744;9.176;2023-05-29T02:44:50;96708.72;;;11.80;57.30
80405;BME280;69733;48.744;9.176;2023-05-29T02:47:15;96708.63;;;11.75;57.12
80405;BME280;69733;48.744;9.176;2023-05-29T02:49:41;96709.13;;;11.72;57.24
80405;BME280;69733;48.744;9.176;2023-05-29T02:52:06;96707.94;;;11.68;57.62
80405;BME280;69733;48.744;9.176;2023-05-29T02:54:31;96702.50;;;11.63;57.41
80405;BME280;69733;48.744;9.176;2023-05-29T02:56:56;96713.63;;;11.60;57.58
80405;BME280;69733;48.744;9.176;2023-05-29T02:59:22;96702.09;;;11.54;57.83
80405;BME280;69733;48.744;9.176;2023-05-29T03:01:47;96694.56;;;11.51;57.91
80405;BME280;69733;48.744;9.176;2023-05-29T03:04:14;96698.75;;;11.47;57.92
80405;BME280;69733;48.744;9.176;2023-05-29T03:07:02;96689.34;;;11.44;58.31
80405;BME280;69733;48.744;9.176;2023-05-29T03:09:27;96690.63;;;11.42;58.27
80405;BME280;69733;48.744;9.176;2023-05-29T03:11:52;96691.66;;;11.41;58.50
80405;BME280;69733;48.744;9.176;2023-05-29T03:14:18;96696.09;;;11.35;58.39
80405;BME280;69733;48.744;9.176;2023-05-29T03:17:09;96695.75;;;11.32;58.48
80405;BME280;69733;48.744;9.176;2023-05-29T03:19:34;96693.56;;;11.29;58.87
80405;BME280;69733;48.744;9.176;2023-05-29T03:21:59;96689.53;;;11.26;59.08
80405;BME280;69733;48.744;9.176;2023-05-29T03:24:25;96696.94;;;11.24;58.59
80405;BME280;69733;48.744;9.176;2023-05-29T03:26:56;96698.22;;;11.22;59.19
80405;BME280;69733;48.744;9.176;2023-05-29T03:29:22;96697.63;;;11.20;59.43
80405;BME280;69733;48.744;9.176;2023-05-29T03:31:47;96696.25;;;11.17;59.48
80405;BME280;69733;48.744;9.176;2023-05-29T03:34:12;96699.72;;;11.18;59.49
80405;BME280;69733;48.744;9.176;2023-05-29T03:36:44;96701.56;;;11.17;59.52
80405;BME280;69733;48.744;9.176;2023-05-29T03:39:11;96702.38;;;11.18;59.41
80405;BME280;69733;48.744;9.176;2023-05-29T03:41:37;96696.03;;;11.19;59.83
80405;BME280;69733;48.744;9.176;2023-05-29T03:44:02;96697.88;;;11.18;59.55
80405;BME280;69733;48.744;9.176;2023-05-29T03:46:27;96698.69;;;11.19;59.59
80405;BME280;69733;48.744;9.176;2023-05-29T03:48:53;96698.44;;;11.20;59.82
80405;BME280;69733;48.744;9.176;2023-05-29T03:51:18;96697.19;;;11.23;60.02
80405;BME280;69733;48.744;9.176;2023-05-29T03:53:43;96696.13;;;11.24;60.11
80405;BME280;69733;48.744;9.176;2023-05-29T03:56:09;96705.50;;;11.26;59.87
80405;BME280;69733;48.744;9.176;2023-05-29T03:58:34;96701.31;;;11.30;60.32
80405;BME280;69733;48.744;9.176;2023-05-29T04:01:01;96706.41;;;11.32;59.80
80405;BME280;69733;48.744;9.176;2023-05-29T04:03:27;96704.91;;;11.36;60.22
80405;BME280;69733;48.744;9.176;2023-05-29T04:05:54;96708.94;;;11.38;59.99
80405;BME280;69733;48.744;9.176;2023-05-29T04:08:23;96713.78;;;11.41;60.21
80405;BME280;69733;48.744;9.176;2023-05-29T04:10:51;96714.94;;;11.45;60.21
80405;BME280;69733;48.744;9.176;2023-05-29T04:13:19;96725.72;;;11.51;60.47
80405;BME280;69733;48.744;9.176;2023-05-29T04:15:47;96725.25;;;11.54;60.54
80405;BME280;69733;48.744;9.176;2023-05-29T04:18:12;96732.28;;;11.60;60.54
80405;BME280;69733;48.744;9.176;2023-05-29T04:20:38;96733.22;;;11.65;60.51
80405;BME280;69733;48.744;9.176;2023-05-29T04:23:03;96737.81;;;11.70;60.34
80405;BME280;69733;48.744;9.176;2023-05-29T04:25:29;96732.38;;;11.76;60.52
80405;BME280;69733;48.744;9.176;2023-05-29T04:27:54;96730.16;;;11.85;60.55
80405;BME280;69733;48.744;9.176;2023-05-29T04:30:19;96736.16;;;11.92;60.36
80405;BME280;69733;48.744;9.176;2023-05-29T04:32:45;96740.03;;;12.01;60.68
80405;BME280;69733;48.744;9.176;2023-05-29T04:35:11;96740.25;;;12.11;60.60
80405;BME280;69733;48.744;9.176;2023-05-29T04:37:38;96746.81;;;12.20;60.48
80405;BME280;69733;48.744;9.176;2023-05-29T04:40:10;96749.66;;;12.30;60.63
80405;BME280;69733;48.744;9.176;2023-05-29T04:42:36;96756.56;;;12.43;60.84
80405;BME280;69733;48.744;9.176;2023-05-29T04:45:02;96755.75;;;12.59;60.62
80405;BME280;69733;48.744;9.176;2023-05-29T04:47:28;96762.47;;;12.95;60.28
80405;BME280;69733;48.744;9.176;2023-05-29T04:49:54;96762.69;;;13.65;59.39
80405;BME280;69733;48.744;9.176;2023-05-29T04:52:19;96762.84;;;14.51;58.21
80405;BME280;69733;48.744;9.176;2023-05-29T04:55:07;96755.78;;;15.45;57.02
80405;BME280;69733;48.744;9.176;2023-05-29T04:57:33;96755.31;;;16.15;56.41
80405;BME280;69733;48.744;9.176;2023-05-29T04:59:58;96761.31;;;16.83;55.50
80405;BME280;69733;48.744;9.176;2023-05-29T05:02:23;96757.25;;;17.41;54.99
80405;BME280;69733;48.744;9.176;2023-05-29T05:04:49;96747.16;;;17.92;54.62
80405;BME280;69733;48.744;9.176;2023-05-29T05:07:15;96756.06;;;18.42;54.03
80405;BME280;69733;48.744;9.176;2023-05-29T05:09:41;96754.94;;;18.92;53.52
80405;BME280;69733;48.744;9.176;2023-05-29T05:12:07;96757.22;;;19.37;53.43
80405;BME280;69733;48.744;9.176;2023-05-29T05:14:32;96759.22;;;19.79;52.74
80405;BME280;69733;48.744;9.176;2023-05-29T05:16:58;96755.44;;;20.22;52.28
80405;BME280;69733;48.744;9.176;2023-05-29T05:19:23;96761.25;;;20.53;51.76
80405;BME280;69733;48.744;9.176;2023-05-29T05:21:48;96764.44;;;20.93;51.32
80405;BME280;69733;48.744;9.176;2023-05-29T05:24:14;96761.06;;;21.33;50.91
80405;BME280;69733;48.744;9.176;2023-05-29T05:26:39;96761.53;;;21.81;50.32
80405;BME280;69733;48.744;9.176;2023-05-29T05:29:05;96767.16;;;22.25;49.72
80405;BME280;69733;48.744;9.176;2023-05-29T05:31:30;96762.50;;;22.67;49.40
80405;BME280;69733;48.744;9.176;2023-05-29T05:33:55;96763.66;;;22.97;48.89
80405;BME280;69733;48.744;9.176;2023-05-29T05:36:21;96766.00;;;23.34;48.17
80405;BME280;69733;48.744;9.176;2023-05-29T05:38:46;96765.59;;;23.71;47.45
80405;BME280;69733;48.744;9.176;2023-05-29T05:41:11;96762.13;;;24.19;46.47
80405;BME280;69733;48.744;9.176;2023-05-29T05:43:37;96764.09;;;24.53;45.77
80405;BME280;69733;48.744;9.176;2023-05-29T05:46:02;96763.16;;;24.92;45.53
80405;BME280;69733;48.744;9.176;2023-05-29T05:48:27;96767.00;;;25.16;44.79
80405;BME280;69733;48.744;9.176;2023-05-29T05:50:53;96769.34;;;25.52;43.61
80405;BME280;69733;48.744;9.176;2023-05-29T05:53:18;96776.03;;;25.72;42.98
80405;BME280;69733;48.744;9.176;2023-05-29T05:55:43;96762.53;;;26.13;41.80
80405;BME280;69733;48.744;9.176;2023-05-29T05:58:09;96773.41;;;26.31;41.44
80405;BME280;69733;48.744;9.176;2023-05-29T06:00:34;96780.06;;;26.42;40.82
80405;BME280;69733;48.744;9.176;2023-05-29T06:03:00;96779.97;;;26.59;40.35
80405;BME280;69733;48.744;9.176;2023-05-29T06:05:28;96777.22;;;26.88;39.47
80405;BME280;69733;48.744;9.176;2023-05-29T06:07:53;96788.84;;;27.18;38.52
80405;BME280;69733;48.744;9.176;2023-05-29T06:10:18;96791.28;;;27.32;37.92
80405;BME280;69733;48.744;9.176;2023-05-29T06:12:44;96791.59;;;27.51;37.38
80405;BME280;69733;48.744;9.176;2023-05-29T06:15:09;96806.78;;;27.60;36.94
80405;BME280;69733;48.744;9.176;2023-05-29T06:17:35;96805.56;;;27.70;36.38
80405;BME280;69733;48.744;9.176;2023-05-29T06:20:00;96805.94;;;27.93;35.57
80405;BME280;69733;48.744;9.176;2023-05-29T06:22:25;96806.78;;;28.17;34.79
80405;BME280;69733;48.744;9.176;2023-05-29T06:24:51;96801.31;;;28.42;34.29
80405;BME280;69733;48.744;9.176;2023-05-29T06:27:16;96811.13;;;28.67;33.72
80405;BME280;69733;48.744;9.176;2023-05-29T06:29:43;96803.59;;;28.40;33.30
80405;BME280;69733;48.744;9.176;2023-05-29T06:32:08;96811.94;;;28.19;33.03
80405;BME280;69733;48.744;9.176;2023-05-29T06:34:33;96813.63;;;28.11;32.72
80405;BME280;69733;48.744;9.176;2023-05-29T06:36:59;96822.78;;;28.40;32.16
80405;BME280;69733;48.744;9.176;2023-05-29T06:39:24;96822.44;;;28.65;31.96
80405;BME280;69733;48.744;9.176;2023-05-29T06:41:50;96827.53;;;28.91;31.87
80405;BME280;69733;48.744;9.176;2023-05-29T06:44:15;96820.84;;;29.16;31.03
80405;BME280;69733;48.744;9.176;2023-05-29T06:46:40;96829.22;;;29.48;30.60
80405;BME280;69733;48.744;9.176;2023-05-29T06:49:06;96834.31;;;29.77;30.17
80405;BME280;69733;48.744;9.176;2023-05-29T06:51:33;96837.13;;;30.08;29.90
80405;BME280;69733;48.744;9.176;2023-05-29T06:53:59;96831.94;;;30.03;29.44
80405;BME280;69733;48.744;9.176;2023-05-29T06:56:24;96828.72;;;29.86;29.07
80405;BME280;69733;48.744;9.176;2023-05-29T06:58:51;96828.75;;;29.74;28.97
80405;BME280;69733;48.744;9.176;2023-05-29T07:01:16;96828.59;;;29.82;29.08
80405;BME280;69733;48.744;9.176;2023-05-29T07:03:42;96833.97;;;30.06;28.60
80405;BME280;69733;48.744;9.176;2023-05-29T07:06:07;96834.75;;;30.38;28.20
80405;BME280;69733;48.744;9.176;2023-05-29T07:08:33;96841.44;;;30.53;28.05
80405;BME280;69733;48.744;9.176;2023-05-29T07:10:58;96849.75;;;30.56;28.03
80405;BME280;69733;48.744;9.176;2023-05-29T07:13:25;96843.63;;;30.63;27.41
80405;BME280;69733;48.744;9.176;2023-05-29T07:15:50;96855.84;;;30.81;27.25
80405;BME280;69733;48.744;9.176;2023-05-29T07:18:15;96854.16;;;30.61;27.03
80405;BME280;69733;48.744;9.176;2023-05-29T07:20:41;96853.38;;;30.45;26.89
80405;BME280;69733;48.744;9.176;2023-05-29T07:23:06;96851.31;;;30.26;26.70
80405;BME280;69733;48.744;9.176;2023-05-29T07:25:32;96844.25;;;30.25;26.63
80405;BME280;69733;48.744;9.176;2023-05-29T07:27:57;96855.69;;;30.58;26.30
80405;BME280;69733;48.744;9.176;2023-05-29T07:30:23;96854.06;;;30.73;25.95
80405;BME280;69733;48.744;9.176;2023-05-29T07:32:48;96850.75;;;30.99;26.10
80405;BME280;69733;48.744;9.176;2023-05-29T07:35:14;96854.44;;;31.41;25.93
80405;BME280;69733;48.744;9.176;2023-05-29T07:37:39;96858.13;;;31.49;25.70
80405;BME280;69733;48.744;9.176;2023-05-29T07:40:05;96849.47;;;31.89;25.49
80405;BME280;69733;48.744;9.176;2023-05-29T07:42:31;96854.19;;;32.30;25.15
80405;BME280;69733;48.744;9.176;2023-05-29T07:44:57;96862.69;;;32.67;24.92
80405;BME280;69733;48.744;9.176;2023-05-29T07:47:22;96855.56;;;32.63;24.88
80405;BME280;69733;48.744;9.176;2023-05-29T07:49:48;96850.66;;;32.56;25.03
80405;BME280;69733;48.744;9.176;2023-05-29T07:52:13;96857.47;;;32.59;24.45
80405;BME280;69733;48.744;9.176;2023-05-29T07:54:38;96856.66;;;32.84;24.59
80405;BME280;69733;48.744;9.176;2023-05-29T07:57:04;96858.25;;;32.85;23.89
80405;BME280;69733;48.744;9.176;2023-05-29T07:59:40;96855.38;;;32.78;24.00
80405;BME280;69733;48.744;9.176;2023-05-29T08:02:06;96858.25;;;32.85;24.37
80405;BME280;69733;48.744;9.176;2023-05-29T08:04:32;96862.88;;;33.04;23.87
80405;BME280;69733;48.744;9.176;2023-05-29T08:06:58;96862.03;;;33.26;24.02
80405;BME280;69733;48.744;9.176;2023-05-29T08:09:24;96863.75;;;33.38;23.12
80405;BME280;69733;48.744;9.176;2023-05-29T08:11:49;96854.97;;;33.29;22.91
80405;BME280;69733;48.744;9.176;2023-05-29T08:14:14;96861.75;;;33.09;23.13
80405;BME280;69733;48.744;9.176;2023-05-29T08:16:41;96866.56;;;33.12;23.04
80405;BME280;69733;48.744;9.176;2023-05-29T08:19:06;96868.31;;;33.27;22.49
80405;BME280;69733;48.744;9.176;2023-05-29T08:21:32;96862.31;;;33.47;22.57
80405;BME280;69733;48.744;9.176;2023-05-29T08:23:58;96861.31;;;33.63;22.50
80405;BME280;69733;48.744;9.176;2023-05-29T08:26:23;96862.66;;;33.76;22.29
80405;BME280;69733;48.744;9.176;2023-05-29T08:28:49;96861.38;;;34.03;21.94
80405;BME280;69733;48.744;9.176;2023-05-29T08:31:15;96855.47;;;34.05;21.91
80405;BME280;69733;48.744;9.176;2023-05-29T08:33:40;96858.47;;;34.26;21.86
80405;BME280;69733;48.744;9.176;2023-05-29T08:36:06;96851.25;;;34.14;21.36
80405;BME280;69733;48.744;9.176;2023-05-29T08:38:31;96855.34;;;34.31;21.15
80405;BME280;69733;48.744;9.176;2023-05-29T08:40:57;96855.13;;;34.50;21.03
80405;BME280;69733;48.744;9.176;2023-05-29T08:43:30;96856.13;;;34.72;21.04
80405;BME280;69733;48.744;9.176;2023-05-29T08:46:00;96850.88;;;34.60;20.55
80405;BME280;69733;48.744;9.176;2023-05-29T08:48:27;96855.50;;;34.48;20.50
80405;BME280;69733;48.744;9.176;2023-05-29T08:50:54;96852.72;;;34.45;20.66
80405;BME280;69733;48.744;9.176;2023-05-29T08:53:42;96848.91;;;34.60;20.57
80405;BME280;69733;48.744;9.176;2023-05-29T08:56:14;96860.72;;;34.57;20.56
80405;BME280;69733;48.744;9.176;2023-05-29T08:58:43;96859.28;;;34.30;20.88
80405;BME280;69733;48.744;9.176;2023-05-29T09:01:09;96865.53;;;34.23;20.61
80405;BME280;69733;48.744;9.176;2023-05-29T09:03:35;96870.03;;;34.38;20.29
80405;BME280;69733;48.744;9.176;2023-05-29T09:06:03;96874.28;;;34.25;20.29
80405;BME280;69733;48.744;9.176;2023-05-29T09:08:29;96873.00;;;34.19;20.39
80405;BME280;69733;48.744;9.176;2023-05-29T09:10:54;96872.28;;;34.22;20.66
80405;BME280;69733;48.744;9.176;2023-05-29T09:13:20;96866.25;;;34.57;20.55
80405;BME280;69733;48.744;9.176;2023-05-29T09:15:46;96860.91;;;34.78;20.19
80405;BME280;69733;48.744;9.176;2023-05-29T09:18:12;96865.66;;;34.78;20.38
80405;BME280;69733;48.744;9.176;2023-05-29T09:20:37;96874.09;;;34.99;19.95
80405;BME280;69733;48.744;9.176;2023-05-29T09:23:07;96869.38;;;35.03;20.21
80405;BME280;69733;48.744;9.176;2023-05-29T09:25:36;96874.25;;;35.20;20.08
80405;BME280;69733;48.744;9.176;2023-05-29T09:28:05;96870.22;;;35.11;19.83
80405;BME280;69733;48.744;9.176;2023-05-29T09:30:41;96869.25;;;35.47;20.03
80405;BME280;69733;48.744;9.176;2023-05-29T09:33:09;96872.03;;;35.54;20.03
80405;BME280;69733;48.744;9.176;2023-05-29T09:35:38;96875.09;;;35.28;20.40
80405;BME280;69733;48.744;9.176;2023-05-29T09:38:05;96882.13;;;35.15;20.17
80405;BME280;69733;48.744;9.176;2023-05-29T09:40:32;96873.84;;;35.22;20.06
80405;BME280;69733;48.744;9.176;2023-05-29T09:43:02;96880.34;;;35.51;20.02
80405;BME280;69733;48.744;9.176;2023-05-29T09:45:30;96872.53;;;35.63;20.40
80405;BME280;69733;48.744;9.176;2023-05-29T09:47:56;96875.13;;;35.35;20.32
80405;BME280;69733;48.744;9.176;2023-05-29T09:50:25;96875.16;;;35.38;20.49
80405;BME280;69733;48.744;9.176;2023-05-29T09:52:57;96883.88;;;35.47;20.69
80405;BME280;69733;48.744;9.176;2023-05-29T09:55:24;96879.88;;;35.34;20.57
80405;BME280;69733;48.744;9.176;2023-05-29T09:57:53;96878.25;;;34.72;20.51
80405;BME280;69733;48.744;9.176;2023-05-29T10:00:21;96873.22;;;34.44;20.48
80405;BME280;69733;48.744;9.176;2023-05-29T10:02:50;96872.00;;;34.38;20.87
80405;BME280;69733;48.744;9.176;2023-05-29T10:05:16;96859.34;;;34.37;21.21
80405;BME280;69733;48.744;9.176;2023-05-29T10:07:49;96861.75;;;34.38;21.29
80405;BME280;69733;48.744;9.176;2023-05-29T10:10:18;96857.84;;;34.43;21.20
80405;BME280;69733;48.744;9.176;2023-05-29T10:12:48;96852.72;;;34.45;20.51
80405;BME280;69733;48.744;9.176;2023-05-29T10:15:15;96863.66;;;34.31;20.16
80405;BME280;69733;48.744;9.176;2023-05-29T10:17:50;96860.47;;;34.29;21.22
80405;BME280;69733;48.744;9.176;2023-05-29T10:20:19;96856.31;;;34.49;21.01
80405;BME280;69733;48.744;9.176;2023-05-29T10:22:45;96858.19;;;33.97;20.80
80405;BME280;69733;48.744;9.176;2023-05-29T10:25:13;96857.47;;;33.71;21.05
80405;BME280;69733;48.744;9.176;2023-05-29T10:27:38;96853.75;;;33.60;21.20
80405;BME280;69733;48.744;9.176;2023-05-29T10:30:21;96855.47;;;33.68;21.73
80405;BME280;69733;48.744;9.176;2023-05-29T10:40:47;96839.53;;;31.62;21.53
80405;BME280;69733;48.744;9.176;2023-05-29T10:43:32;96837.47;;;31.39;21.63
80405;BME280;69733;48.744;9.176;2023-05-29T10:45:58;96833.09;;;31.00;22.29
80405;BME280;69733;48.744;9.176;2023-05-29T10:50:54;96842.75;;;30.28;22.96
80405;BME280;69733;48.744;9.176;2023-05-29T10:53:30;96832.91;;;29.83;22.96
80405;BME280;69733;48.744;9.176;2023-05-29T10:56:00;96836.59;;;29.59;23.23
80405;BME280;69733;48.744;9.176;2023-05-29T10:58:29;96842.19;;;29.35;23.60
80405;BME280;69733;48.744;9.176;2023-05-29T11:00:55;96844.16;;;29.10;23.50
80405;BME280;69733;48.744;9.176;2023-05-29T11:03:29;96846.53;;;28.72;23.95
80405;BME280;69733;48.744;9.176;2023-05-29T11:06:03;96841.81;;;28.36;24.02
80405;BME280;69733;48.744;9.176;2023-05-29T11:08:52;96834.28;;;28.21;24.08
80405;BME280;69733;48.744;9.176;2023-05-29T11:13:56;96847.81;;;28.05;24.14
80405;BME280;69733;48.744;9.176;2023-05-29T11:18:51;96836.78;;;27.69;25.01
80405;BME280;69733;48.744;9.176;2023-05-29T11:24:00;96840.00;;;27.30;25.38
80405;BME280;69733;48.744;9.176;2023-05-29T11:26:29;96825.28;;;27.22;25.82
80405;BME280;69733;48.744;9.176;2023-05-29T11:29:03;96831.88;;;27.21;25.95
80405;BME280;69733;48.744;9.176;2023-05-29T11:31:31;96835.28;;;27.18;26.10
80405;BME280;69733;48.744;9.176;2023-05-29T11:34:02;96828.97;;;27.05;26.32
80405;BME280;69733;48.744;9.176;2023-05-29T11:36:31;96826.03;;;26.90;26.27
80405;BME280;69733;48.744;9.176;2023-05-29T11:38:58;96822.84;;;26.79;26.47
80405;BME280;69733;48.744;9.176;2023-05-29T11:41:23;96836.22;;;26.72;26.71
80405;BME280;69733;48.744;9.176;2023-05-29T11:44:02;96831.66;;;26.64;26.36
80405;BME280;69733;48.744;9.176;2023-05-29T11:46:28;96822.03;;;26.58;26.79
80405;BME280;69733;48.744;9.176;2023-05-29T11:48:58;96824.53;;;26.42;26.98
80405;BME280;69733;48.744;9.176;2023-05-29T11:51:23;96816.75;;;26.32;27.05
80405;BME280;69733;48.744;9.176;2023-05-29T11:53:49;96813.81;;;26.37;27.23
80405;BME280;69733;48.744;9.176;2023-05-29T11:56:15;96813.28;;;26.44;27.31
80405;BME280;69733;48.744;9.176;2023-05-29T11:58:42;96821.19;;;26.37;27.06
80405;BME280;69733;48.744;9.176;2023-05-29T12:01:08;96820.91;;;26.30;27.01
80405;BME280;69733;48.744;9.176;2023-05-29T12:03:41;96819.47;;;26.32;27.01
80405;BME280;69733;48.744;9.176;2023-05-29T12:06:08;96832.81;;;26.16;26.68
80405;BME280;69733;48.744;9.176;2023-05-29T12:08:33;96839.94;;;26.00;26.27
80405;BME280;69733;48.744;9.176;2023-05-29T12:10:59;96828.13;;;25.79;25.84
80405;BME280;69733;48.744;9.176;2023-05-29T12:13:24;96826.41;;;25.66;25.95
80405;BME280;69733;48.744;9.176;2023-05-29T12:15:53;96836.19;;;25.67;26.06
80405;BME280;69733;48.744;9.176;2023-05-29T12:18:19;96828.47;;;25.69;26.57
80405;BME280;69733;48.744;9.176;2023-05-29T12:20:44;96827.69;;;25.60;26.31
80405;BME280;69733;48.744;9.176;2023-05-29T12:23:10;96810.84;;;25.49;26.42
80405;BME280;69733;48.744;9.176;2023-05-29T12:25:38;96818.88;;;25.46;26.33
80405;BME280;69733;48.744;9.176;2023-05-29T12:28:04;96827.41;;;25.36;26.30
80405;BME280;69733;48.744;9.176;2023-05-29T12:30:30;96816.34;;;25.32;26.55
80405;BME280;69733;48.744;9.176;2023-05-29T12:32:56;96816.19;;;25.29;26.66
80405;BME280;69733;48.744;9.176;2023-05-29T12:35:27;96821.94;;;25.27;26.37
80405;BME280;69733;48.744;9.176;2023-05-29T12:43:01;96827.72;;;25.17;26.37
80405;BME280;69733;48.744;9.176;2023-05-29T12:45:32;96833.81;;;25.05;26.72
80405;BME280;69733;48.744;9.176;2023-05-29T12:48:03;96829.47;;;24.96;26.36
80405;BME280;69733;48.744;9.176;2023-05-29T12:50:38;96834.28;;;24.90;26.62
80405;BME280;69733;48.744;9.176;2023-05-29T12:55:32;96827.66;;;24.74;26.59
80405;BME280;69733;48.744;9.176;2023-05-29T12:58:05;96830.56;;;24.69;26.21
80405;BME280;69733;48.744;9.176;2023-05-29T13:00:32;96833.88;;;24.66;26.46
80405;BME280;69733;48.744;9.176;2023-05-29T13:02:58;96824.75;;;24.53;25.54
80405;BME280;69733;48.744;9.176;2023-05-29T13:05:23;96832.28;;;24.48;25.55
80405;BME280;69733;48.744;9.176;2023-05-29T13:07:50;96825.06;;;24.43;25.40
80405;BME280;69733;48.744;9.176;2023-05-29T13:10:16;96818.97;;;24.46;25.49
80405;BME280;69733;48.744;9.176;2023-05-29T13:12:42;96832.56;;;24.46;25.53
80405;BME280;69733;48.744;9.176;2023-05-29T13:15:09;96824.25;;;24.43;25.72
80405;BME280;69733;48.744;9.176;2023-05-29T13:17:35;96815.44;;;24.46;26.34
80405;BME280;69733;48.744;9.176;2023-05-29T13:20:00;96829.38;;;24.44;26.04
80405;BME280;69733;48.744;9.176;2023-05-29T13:22:25;96825.84;;;24.44;26.14
80405;BME280;69733;48.744;9.176;2023-05-29T13:24:57;96817.03;;;24.38;25.58
80405;BME280;69733;48.744;9.176;2023-05-29T13:27:22;96826.94;;;24.34;25.97
80405;BME280;69733;48.744;9.176;2023-05-29T13:29:49;96819.75;;;24.30;25.98